createdAt,value
2017-10-13T00:00:42.936Z,22.41
2017-10-13T00:01:51.962Z,22.33
2017-10-13T00:03:01.672Z,22.33
2017-10-13T00:04:10.701Z,22.36
2017-10-13T00:05:19.402Z,22.36
2017-10-13T00:06:29.114Z,22.36
2017-10-13T00:07:38.476Z,22.28
2017-10-13T00:08:48.171Z,22.28
2017-10-13T00:09:57.864Z,22.28
2017-10-13T00:11:06.894Z,22.33
2017-10-13T00:12:15.921Z,22.32
2017-10-13T00:13:24.945Z,22.29
2017-10-13T00:14:33.642Z,22.26
2017-10-13T00:15:43.349Z,22.39
2017-10-13T00:16:52.040Z,22.25
2017-10-13T00:18:01.399Z,22.28
2017-10-13T00:19:10.431Z,22.26
2017-10-13T00:20:19.458Z,22.26
2017-10-13T00:21:28.158Z,22.23
2017-10-13T00:22:37.191Z,22.2
2017-10-13T00:23:46.230Z,22.28
2017-10-13T00:24:55.267Z,22.28
2017-10-13T00:26:03.962Z,22.28
2017-10-13T00:27:13.336Z,22.26
2017-10-13T00:28:22.374Z,22.25
2017-10-13T00:29:31.734Z,22.3
2017-10-13T00:30:40.765Z,22.2
2017-10-13T00:31:50.134Z,22.25
2017-10-13T00:32:59.826Z,22.3
2017-10-13T00:34:09.196Z,22.23
2017-10-13T00:35:18.228Z,22.26
2017-10-13T00:36:26.927Z,22.25
2017-10-13T00:37:35.621Z,22.28
2017-10-13T00:38:44.652Z,22.26
2017-10-13T00:39:53.350Z,22.32
2017-10-13T00:41:02.709Z,22.28
2017-10-13T00:42:11.404Z,22.26
2017-10-13T00:43:20.100Z,22.23
2017-10-13T00:44:29.467Z,22.26
2017-10-13T00:45:38.842Z,22.3
2017-10-13T00:46:48.219Z,22.17
2017-10-13T00:47:57.247Z,22.26
2017-10-13T00:49:06.280Z,22.23
2017-10-13T00:50:15.639Z,22.28
2017-10-13T00:51:24.340Z,22.25
2017-10-13T00:52:33.380Z,22.11
2017-10-13T00:53:42.733Z,22.22
2017-10-13T00:54:51.763Z,22.25
2017-10-13T00:56:01.127Z,22.23
2017-10-13T00:57:10.160Z,22.25
2017-10-13T00:58:18.857Z,22.23
2017-10-13T00:59:28.220Z,22.26
2017-10-13T01:00:36.916Z,22.2
2017-10-13T01:01:45.614Z,22.18
2017-10-13T01:02:54.308Z,22.29
2017-10-13T01:04:03.341Z,22.22
2017-10-13T01:05:12.037Z,22.23
2017-10-13T01:06:20.732Z,22.26
2017-10-13T01:07:30.097Z,22.17
2017-10-13T01:08:39.125Z,22.13
2017-10-13T01:09:48.485Z,22.2
2017-10-13T01:10:57.857Z,22.13
2017-10-13T01:12:07.543Z,22.17
2017-10-13T01:13:16.574Z,22.25
2017-10-13T01:14:25.608Z,22.17
2017-10-13T01:15:34.640Z,22.17
2017-10-13T01:16:44.019Z,22.13
2017-10-13T01:17:53.729Z,22.23
2017-10-13T01:19:02.425Z,22.2
2017-10-13T01:20:11.455Z,22.22
2017-10-13T01:21:20.823Z,22.23
2017-10-13T01:22:29.844Z,22.17
2017-10-13T01:23:38.541Z,22.2
2017-10-13T01:24:47.575Z,22.13
2017-10-13T01:25:56.936Z,22.11
2017-10-13T01:27:05.636Z,22.2
2017-10-13T01:28:14.336Z,22.11
2017-10-13T01:29:23.366Z,22.1
2017-10-13T01:30:32.399Z,22.14
2017-10-13T01:31:42.098Z,22.2
2017-10-13T01:32:50.795Z,22.14
2017-10-13T01:33:59.494Z,22.11
2017-10-13T01:35:08.528Z,22.18
2017-10-13T01:36:17.888Z,22.18
2017-10-13T01:37:26.915Z,22.15
2017-10-13T01:38:35.942Z,22.17
2017-10-13T01:39:44.973Z,22.15
2017-10-13T01:40:54.330Z,22.14
2017-10-13T01:42:03.359Z,22.15
2017-10-13T01:43:12.390Z,22.15
2017-10-13T01:44:21.417Z,22.15
2017-10-13T01:45:30.454Z,22.14
2017-10-13T01:46:39.827Z,22.13
2017-10-13T01:47:49.198Z,22.18
2017-10-13T01:48:58.231Z,22.22
2017-10-13T01:50:07.265Z,22.08
2017-10-13T01:51:15.966Z,22.1
2017-10-13T01:52:25.337Z,22.14
2017-10-13T01:53:34.035Z,22.08
2017-10-13T01:54:43.396Z,22.14
2017-10-13T01:55:52.439Z,22.11
2017-10-13T01:57:01.459Z,22.15
2017-10-13T01:58:10.487Z,22.08
2017-10-13T01:59:20.179Z,22.13
2017-10-13T02:00:28.873Z,22.13
2017-10-13T02:01:37.901Z,22.18
2017-10-13T02:02:46.932Z,22.13
2017-10-13T02:03:56.297Z,22.1
2017-10-13T02:05:06.320Z,22.17
2017-10-13T02:06:15.350Z,22.07
2017-10-13T02:07:24.048Z,22.08
2017-10-13T02:08:33.420Z,22.1
2017-10-13T02:09:42.782Z,22.1
2017-10-13T02:10:51.483Z,22.07
2017-10-13T02:12:00.516Z,22.07
2017-10-13T02:13:09.550Z,22.17
2017-10-13T02:14:18.586Z,22.08
2017-10-13T02:15:27.943Z,22.07
2017-10-13T02:16:37.306Z,22.08
2017-10-13T02:17:46.665Z,22.08
2017-10-13T02:18:56.020Z,22.04
2017-10-13T02:20:05.387Z,22.13
2017-10-13T02:21:15.088Z,22.02
2017-10-13T02:22:24.124Z,22.13
2017-10-13T02:23:33.813Z,22.13
2017-10-13T02:24:43.172Z,22.1
2017-10-13T02:25:52.198Z,22.06
2017-10-13T02:27:01.226Z,22.1
2017-10-13T02:28:09.924Z,22.02
2017-10-13T02:29:18.953Z,22.06
2017-10-13T02:30:28.665Z,22.13
2017-10-13T02:31:37.695Z,22.07
2017-10-13T02:32:47.066Z,22.06
2017-10-13T02:33:56.435Z,21.96
2017-10-13T02:35:05.134Z,22.06
2017-10-13T02:36:14.853Z,22.06
2017-10-13T02:37:23.881Z,21.96
2017-10-13T02:38:33.578Z,22.07
2017-10-13T02:39:42.276Z,22.1
2017-10-13T02:40:51.306Z,22.11
2017-10-13T02:42:01.001Z,21.99
2017-10-13T02:43:09.701Z,21.99
2017-10-13T02:44:18.399Z,21.96
2017-10-13T02:45:27.439Z,22.06
2017-10-13T02:46:37.487Z,21.98
2017-10-13T02:47:46.514Z,22.06
2017-10-13T02:48:55.546Z,21.98
2017-10-13T02:50:04.908Z,21.99
2017-10-13T02:51:13.605Z,21.99
2017-10-13T02:52:23.639Z,21.98
2017-10-13T02:53:33.002Z,22.02
2017-10-13T02:54:41.701Z,22
2017-10-13T02:55:50.399Z,22.02
2017-10-13T02:56:59.781Z,22
2017-10-13T02:58:08.808Z,21.98
2017-10-13T02:59:17.506Z,21.98
2017-10-13T03:00:26.533Z,21.98
2017-10-13T03:01:35.232Z,21.98
2017-10-13T03:02:44.600Z,21.92
2017-10-13T03:03:53.633Z,22.04
2017-10-13T03:05:02.661Z,21.95
2017-10-13T03:06:11.692Z,21.95
2017-10-13T03:07:20.720Z,21.96
2017-10-13T03:08:30.079Z,21.95
2017-10-13T03:09:38.779Z,21.96
2017-10-13T03:10:47.815Z,21.99
2017-10-13T03:11:56.852Z,21.98
2017-10-13T03:13:06.554Z,21.96
2017-10-13T03:14:15.946Z,21.91
2017-10-13T03:15:24.644Z,21.92
2017-10-13T03:16:33.677Z,21.93
2017-10-13T03:17:43.042Z,21.95
2017-10-13T03:18:51.737Z,21.92
2017-10-13T03:20:00.433Z,21.95
2017-10-13T03:21:09.462Z,21.89
2017-10-13T03:22:18.828Z,21.92
2017-10-13T03:23:27.853Z,21.89
2017-10-13T03:24:37.214Z,21.95
2017-10-13T03:25:45.909Z,21.89
2017-10-13T03:26:55.613Z,21.98
2017-10-13T03:28:04.695Z,21.92
2017-10-13T03:29:13.727Z,21.91
2017-10-13T03:30:22.426Z,21.92
2017-10-13T03:31:31.788Z,21.93
2017-10-13T03:32:40.485Z,21.91
2017-10-13T03:33:49.852Z,21.92
2017-10-13T03:34:58.546Z,21.89
2017-10-13T03:36:07.570Z,21.91
2017-10-13T03:37:16.598Z,21.85
2017-10-13T03:38:25.625Z,21.89
2017-10-13T03:39:34.987Z,21.88
2017-10-13T03:40:44.356Z,21.88
2017-10-13T03:41:53.056Z,21.88
2017-10-13T03:43:02.085Z,21.93
2017-10-13T03:44:11.108Z,21.91
2017-10-13T03:45:21.135Z,21.85
2017-10-13T03:46:30.499Z,21.82
2017-10-13T03:47:39.198Z,21.88
2017-10-13T03:48:47.894Z,21.89
2017-10-13T03:49:56.923Z,21.89
2017-10-13T03:51:05.951Z,21.92
2017-10-13T03:52:14.978Z,21.89
2017-10-13T03:53:24.001Z,21.89
2017-10-13T03:54:33.028Z,21.91
2017-10-13T03:55:42.059Z,21.82
2017-10-13T03:56:51.084Z,21.92
2017-10-13T03:58:00.114Z,21.83
2017-10-13T03:59:09.814Z,21.82
2017-10-13T04:00:19.503Z,21.8
2017-10-13T04:01:28.527Z,21.82
2017-10-13T04:02:37.888Z,21.82
2017-10-13T04:03:46.589Z,21.89
2017-10-13T04:04:55.955Z,21.92
2017-10-13T04:06:04.987Z,21.85
2017-10-13T04:07:13.683Z,21.92
2017-10-13T04:08:23.374Z,21.89
2017-10-13T04:09:32.405Z,21.89
2017-10-13T04:10:41.102Z,21.83
2017-10-13T04:11:50.467Z,21.75
2017-10-13T04:12:59.498Z,21.83
2017-10-13T04:14:08.196Z,21.89
2017-10-13T04:15:16.896Z,21.85
2017-10-13T04:16:26.598Z,21.89
2017-10-13T04:17:35.296Z,21.83
2017-10-13T04:18:44.330Z,21.89
2017-10-13T04:19:53.362Z,21.8
2017-10-13T04:21:02.395Z,21.91
2017-10-13T04:22:11.757Z,21.83
2017-10-13T04:23:21.118Z,21.88
2017-10-13T04:24:30.478Z,21.88
2017-10-13T04:25:39.842Z,21.8
2017-10-13T04:26:48.873Z,21.8
2017-10-13T04:27:57.571Z,21.88
2017-10-13T04:29:06.603Z,21.88
2017-10-13T04:30:15.637Z,21.83
2017-10-13T04:31:24.666Z,21.91
2017-10-13T04:32:34.021Z,21.91
2017-10-13T04:33:43.376Z,21.77
2017-10-13T04:34:52.741Z,21.88
2017-10-13T04:36:02.118Z,21.85
2017-10-13T04:37:10.807Z,21.91
2017-10-13T04:38:20.494Z,21.88
2017-10-13T04:39:29.193Z,21.8
2017-10-13T04:40:38.555Z,21.89
2017-10-13T04:41:47.590Z,21.83
2017-10-13T04:42:56.279Z,21.85
2017-10-13T04:44:05.319Z,21.88
2017-10-13T04:45:14.677Z,21.83
2017-10-13T04:46:23.701Z,21.83
2017-10-13T04:47:32.736Z,21.88
2017-10-13T04:48:42.100Z,21.88
2017-10-13T04:49:51.125Z,21.85
2017-10-13T04:51:00.825Z,21.91
2017-10-13T04:52:10.190Z,21.95
2017-10-13T04:53:18.882Z,21.96
2017-10-13T04:54:28.595Z,21.83
2017-10-13T04:55:37.604Z,21.95
2017-10-13T04:56:46.638Z,21.88
2017-10-13T04:57:55.659Z,21.89
2017-10-13T04:59:05.028Z,21.89
2017-10-13T05:00:14.378Z,21.89
2017-10-13T05:01:23.079Z,21.92
2017-10-13T05:02:32.111Z,21.93
2017-10-13T05:03:41.135Z,21.96
2017-10-13T05:04:50.505Z,21.89
2017-10-13T05:05:59.205Z,21.96
2017-10-13T05:07:08.897Z,21.92
2017-10-13T05:08:17.926Z,21.95
2017-10-13T05:09:26.960Z,21.93
2017-10-13T05:10:36.649Z,21.92
2017-10-13T05:11:46.014Z,21.96
2017-10-13T05:12:54.716Z,21.96
2017-10-13T05:14:03.412Z,21.95
2017-10-13T05:15:12.782Z,21.93
2017-10-13T05:16:21.478Z,22.02
2017-10-13T05:17:30.838Z,22.04
2017-10-13T05:18:40.858Z,21.98
2017-10-13T05:19:50.551Z,21.99
2017-10-13T05:20:59.924Z,21.98
2017-10-13T05:22:09.289Z,22
2017-10-13T05:23:17.984Z,21.96
2017-10-13T05:24:27.014Z,21.99
2017-10-13T05:25:36.378Z,22.04
2017-10-13T05:26:46.082Z,21.96
2017-10-13T05:27:55.454Z,22.07
2017-10-13T05:29:04.479Z,21.98
2017-10-13T05:30:13.509Z,22.08
2017-10-13T05:31:22.546Z,22.13
2017-10-13T05:32:31.905Z,22.1
2017-10-13T05:33:41.269Z,22.1
2017-10-13T05:34:49.963Z,22.1
2017-10-13T05:35:58.994Z,22.06
2017-10-13T05:37:08.029Z,22.08
2017-10-13T05:38:17.400Z,22.08
2017-10-13T05:39:27.096Z,22.1
2017-10-13T05:40:36.133Z,22.08
2017-10-13T05:41:45.168Z,22.08
2017-10-13T05:42:54.526Z,22.1
2017-10-13T05:44:03.892Z,22.15
2017-10-13T05:45:12.595Z,22.1
2017-10-13T05:46:21.631Z,22.15
2017-10-13T05:47:30.672Z,22.08
2017-10-13T05:48:39.712Z,22.18
2017-10-13T05:49:48.738Z,22.1
2017-10-13T05:50:57.765Z,22.13
2017-10-13T05:52:07.127Z,22.15
2017-10-13T05:53:15.824Z,22.1
2017-10-13T05:54:25.189Z,22.17
2017-10-13T05:55:34.891Z,22.18
2017-10-13T05:56:43.921Z,22.17
2017-10-13T05:57:52.953Z,22.13
2017-10-13T05:59:01.981Z,22.15
2017-10-13T06:00:11.342Z,22.14
2017-10-13T06:01:20.373Z,22.17
2017-10-13T06:02:29.401Z,22.2
2017-10-13T06:03:38.764Z,22.17
2017-10-13T06:04:47.791Z,22.13
2017-10-13T06:05:57.154Z,22.14
2017-10-13T06:07:06.515Z,22.17
2017-10-13T06:08:15.214Z,22.15
2017-10-13T06:09:24.241Z,22.14
2017-10-13T06:10:33.269Z,22.25
2017-10-13T06:11:41.968Z,22.15
2017-10-13T06:12:51.005Z,22.23
2017-10-13T06:14:00.372Z,22.23
2017-10-13T06:15:09.742Z,22.13
2017-10-13T06:16:19.118Z,22.15
2017-10-13T06:17:28.488Z,22.2
2017-10-13T06:18:38.517Z,22.13
2017-10-13T06:19:47.548Z,22.22
2017-10-13T06:20:56.904Z,22.23
2017-10-13T06:22:05.932Z,22.28
2017-10-13T06:23:14.962Z,22.25
2017-10-13T06:24:24.988Z,22.28
2017-10-13T06:25:34.019Z,22.22
2017-10-13T06:26:43.045Z,22.23
2017-10-13T06:27:52.074Z,22.23
2017-10-13T06:29:00.770Z,22.25
2017-10-13T06:30:09.799Z,22.23
2017-10-13T06:31:19.163Z,22.25
2017-10-13T06:32:27.861Z,22.29
2017-10-13T06:33:36.891Z,22.29
2017-10-13T06:34:45.932Z,22.29
2017-10-13T06:35:54.965Z,22.23
2017-10-13T06:37:03.991Z,22.22
2017-10-13T06:38:13.352Z,22.3
2017-10-13T06:39:23.051Z,22.25
2017-10-13T06:40:32.085Z,22.25
2017-10-13T06:41:40.782Z,22.25
2017-10-13T06:42:49.820Z,22.25
2017-10-13T06:43:58.849Z,22.28
2017-10-13T06:45:08.213Z,22.26
2017-10-13T06:46:17.578Z,22.3
2017-10-13T06:47:26.941Z,22.29
2017-10-13T06:48:36.304Z,22.29
2017-10-13T06:49:45.341Z,22.25
2017-10-13T06:50:54.371Z,22.28
2017-10-13T06:52:03.736Z,22.3
2017-10-13T06:53:13.768Z,22.28
2017-10-13T06:54:22.467Z,22.35
2017-10-13T06:55:31.492Z,22.33
2017-10-13T06:56:41.521Z,22.28
2017-10-13T06:57:50.550Z,22.23
2017-10-13T06:58:59.576Z,22.35
2017-10-13T07:00:08.609Z,22.28
2017-10-13T07:01:17.310Z,22.38
2017-10-13T07:02:26.005Z,22.29
2017-10-13T07:03:35.378Z,22.38
2017-10-13T07:04:44.409Z,22.44
2017-10-13T07:05:53.434Z,22.3
2017-10-13T07:07:02.136Z,22.29
2017-10-13T07:08:11.498Z,22.28
2017-10-13T07:09:20.528Z,22.33
2017-10-13T07:10:29.561Z,22.28
2017-10-13T07:11:38.599Z,22.26
2017-10-13T07:12:48.293Z,22.28
2017-10-13T07:13:57.656Z,22.38
2017-10-13T07:15:07.362Z,22.32
2017-10-13T07:16:17.056Z,22.33
2017-10-13T07:17:26.087Z,22.3
2017-10-13T07:18:34.781Z,22.35
2017-10-13T07:19:43.477Z,22.3
2017-10-13T07:20:52.509Z,22.35
2017-10-13T07:22:01.204Z,22.43
2017-10-13T07:23:10.234Z,22.36
2017-10-13T07:24:19.606Z,22.36
2017-10-13T07:25:28.651Z,22.26
2017-10-13T07:26:37.675Z,22.44
2017-10-13T07:27:47.037Z,22.39
2017-10-13T07:28:56.735Z,22.38
2017-10-13T07:30:05.443Z,22.35
2017-10-13T07:31:14.474Z,22.36
2017-10-13T07:32:23.175Z,22.36
2017-10-13T07:33:32.201Z,22.38
2017-10-13T07:34:40.895Z,22.36
2017-10-13T07:35:49.592Z,22.38
2017-10-13T07:36:58.631Z,22.32
2017-10-13T07:38:07.667Z,22.32
2017-10-13T07:39:16.712Z,22.38
2017-10-13T07:40:25.744Z,22.43
2017-10-13T07:41:34.777Z,22.41
2017-10-13T07:42:43.810Z,22.36
2017-10-13T07:43:52.832Z,22.35
2017-10-13T07:45:01.868Z,22.43
2017-10-13T07:46:10.570Z,22.36
2017-10-13T07:47:20.266Z,22.35
2017-10-13T07:48:29.301Z,22.36
2017-10-13T07:49:38.334Z,22.36
2017-10-13T07:50:47.702Z,22.32
2017-10-13T07:51:57.056Z,22.36
2017-10-13T07:53:05.751Z,22.36
2017-10-13T07:54:15.122Z,22.41
2017-10-13T07:55:24.481Z,22.39
2017-10-13T07:56:34.178Z,22.36
2017-10-13T07:57:43.541Z,22.43
2017-10-13T07:58:52.236Z,22.35
2017-10-13T08:00:01.596Z,22.39
2017-10-13T08:01:11.291Z,22.43
2017-10-13T08:02:19.991Z,22.38
2017-10-13T08:03:29.023Z,22.45
2017-10-13T08:04:37.729Z,22.45
2017-10-13T08:05:47.098Z,22.44
2017-10-13T08:06:56.459Z,22.45
2017-10-13T08:08:05.822Z,22.43
2017-10-13T08:09:15.187Z,22.43
2017-10-13T08:10:24.547Z,22.45
2017-10-13T08:11:33.910Z,22.41
2017-10-13T08:12:42.608Z,22.43
2017-10-13T08:13:51.972Z,22.41
2017-10-13T08:15:01.000Z,22.44
2017-10-13T08:16:10.042Z,22.47
2017-10-13T08:17:19.067Z,22.44
2017-10-13T08:18:28.098Z,22.43
2017-10-13T08:19:37.129Z,22.44
2017-10-13T08:20:46.155Z,22.48
2017-10-13T08:21:55.519Z,22.47
2017-10-13T08:23:04.565Z,22.48
2017-10-13T08:24:13.929Z,22.45
2017-10-13T08:25:23.294Z,22.53
2017-10-13T08:26:32.986Z,22.55
2017-10-13T08:27:42.355Z,22.5
2017-10-13T08:28:51.729Z,22.53
2017-10-13T08:30:01.432Z,22.5
2017-10-13T08:31:10.127Z,22.48
2017-10-13T08:32:19.155Z,22.53
2017-10-13T08:33:28.517Z,22.55
2017-10-13T08:34:37.555Z,22.55
2017-10-13T08:35:47.253Z,22.6
2017-10-13T08:36:55.949Z,22.55
2017-10-13T08:38:04.975Z,22.55
2017-10-13T08:39:14.672Z,22.54
2017-10-13T08:40:24.057Z,22.54
2017-10-13T08:41:33.090Z,22.59
2017-10-13T08:42:42.121Z,22.54
2017-10-13T08:43:51.477Z,22.55
2017-10-13T08:45:00.836Z,22.55
2017-10-13T08:46:09.862Z,22.59
2017-10-13T08:47:18.896Z,22.59
2017-10-13T08:48:27.933Z,22.62
2017-10-13T08:49:37.316Z,22.55
2017-10-13T08:50:46.012Z,22.59
2017-10-13T08:51:56.042Z,22.62
2017-10-13T08:53:05.734Z,22.57
2017-10-13T08:54:14.429Z,22.57
2017-10-13T08:55:24.456Z,22.6
2017-10-13T08:56:33.484Z,22.57
2017-10-13T08:57:42.848Z,22.59
2017-10-13T08:58:52.208Z,22.55
2017-10-13T09:00:01.574Z,22.57
2017-10-13T09:01:10.959Z,22.66
2017-10-13T09:02:20.318Z,22.66
2017-10-13T09:03:29.014Z,22.68
2017-10-13T09:04:38.381Z,22.68
2017-10-13T09:05:47.741Z,22.65
2017-10-13T09:06:56.789Z,22.65
2017-10-13T09:08:05.821Z,22.66
2017-10-13T09:09:14.853Z,22.72
2017-10-13T09:10:24.216Z,22.65
2017-10-13T09:11:32.916Z,22.66
2017-10-13T09:12:41.617Z,22.69
2017-10-13T09:13:50.993Z,22.7
2017-10-13T09:15:00.029Z,22.69
2017-10-13T09:16:08.730Z,22.75
2017-10-13T09:17:18.095Z,22.72
2017-10-13T09:18:26.794Z,22.69
2017-10-13T09:19:35.488Z,22.7
2017-10-13T09:20:44.187Z,22.69
2017-10-13T09:21:53.219Z,22.72
2017-10-13T09:23:02.582Z,22.7
2017-10-13T09:24:11.609Z,22.7
2017-10-13T09:25:20.967Z,22.73
2017-10-13T09:26:30.330Z,22.7
2017-10-13T09:27:39.360Z,22.7
2017-10-13T09:28:48.729Z,22.76
2017-10-13T09:29:58.103Z,22.69
2017-10-13T09:31:07.465Z,22.68
2017-10-13T09:32:16.824Z,22.72
2017-10-13T09:33:25.851Z,22.73
2017-10-13T09:34:34.883Z,22.69
2017-10-13T09:35:44.258Z,22.7
2017-10-13T09:36:53.289Z,22.72
2017-10-13T09:38:02.657Z,22.66
2017-10-13T09:39:11.684Z,22.73
2017-10-13T09:40:20.380Z,22.73
2017-10-13T09:41:29.082Z,22.73
2017-10-13T09:42:37.782Z,22.7
2017-10-13T09:43:46.805Z,22.68
2017-10-13T09:44:55.839Z,22.73
2017-10-13T09:46:04.645Z,22.75
2017-10-13T09:47:14.005Z,22.73
2017-10-13T09:48:23.033Z,22.72
2017-10-13T09:49:32.407Z,22.72
2017-10-13T09:50:41.785Z,22.73
2017-10-13T09:51:50.826Z,22.75
2017-10-13T09:53:00.189Z,22.72
2017-10-13T09:54:09.218Z,22.72
2017-10-13T09:55:18.246Z,22.7
2017-10-13T09:56:27.277Z,22.66
2017-10-13T09:57:35.970Z,22.7
2017-10-13T09:58:45.000Z,22.87
2017-10-13T09:59:54.700Z,22.72
2017-10-13T10:01:03.398Z,22.7
2017-10-13T10:02:12.763Z,22.68
2017-10-13T10:03:22.120Z,22.75
2017-10-13T10:04:30.818Z,22.68
2017-10-13T10:05:39.856Z,22.65
2017-10-13T10:06:48.896Z,22.66
2017-10-13T10:07:57.591Z,22.7
2017-10-13T10:09:06.290Z,22.76
2017-10-13T10:10:15.321Z,22.68
2017-10-13T10:11:24.020Z,22.69
2017-10-13T10:12:32.719Z,22.69
2017-10-13T10:13:41.749Z,22.66
2017-10-13T10:14:51.446Z,22.78
2017-10-13T10:16:00.804Z,22.68
2017-10-13T10:17:10.168Z,22.66
2017-10-13T10:18:19.527Z,22.7
2017-10-13T10:19:28.557Z,22.69
2017-10-13T10:20:37.254Z,22.75
2017-10-13T10:21:46.617Z,22.7
2017-10-13T10:22:55.649Z,22.76
2017-10-13T10:24:05.015Z,22.78
2017-10-13T10:25:14.710Z,22.8
2017-10-13T10:26:24.073Z,22.76
2017-10-13T10:27:33.436Z,22.8
2017-10-13T10:28:42.798Z,22.83
2017-10-13T10:29:51.828Z,22.8
2017-10-13T10:31:01.196Z,22.81
2017-10-13T10:32:10.232Z,22.76
2017-10-13T10:33:18.931Z,22.83
2017-10-13T10:34:27.960Z,22.81
2017-10-13T10:35:36.658Z,22.8
2017-10-13T10:36:45.361Z,22.87
2017-10-13T10:37:55.060Z,22.83
2017-10-13T10:39:04.091Z,22.84
2017-10-13T10:40:13.782Z,22.85
2017-10-13T10:41:22.817Z,22.8
2017-10-13T10:42:32.175Z,22.81
2017-10-13T10:43:40.868Z,22.81
2017-10-13T10:44:50.232Z,22.9
2017-10-13T10:45:58.928Z,22.83
2017-10-13T10:47:08.288Z,22.87
2017-10-13T10:48:17.323Z,22.93
2017-10-13T10:49:26.693Z,22.83
2017-10-13T10:50:35.724Z,22.88
2017-10-13T10:51:45.421Z,22.91
2017-10-13T10:52:54.780Z,22.87
2017-10-13T10:54:04.139Z,22.87
2017-10-13T10:55:13.167Z,22.85
2017-10-13T10:56:22.526Z,22.87
2017-10-13T10:57:31.554Z,22.9
2017-10-13T10:58:40.580Z,22.81
2017-10-13T10:59:49.605Z,22.83
2017-10-13T11:00:58.636Z,22.87
2017-10-13T11:02:07.338Z,22.83
2017-10-13T11:03:17.028Z,22.87
2017-10-13T11:04:26.054Z,22.9
2017-10-13T11:05:35.077Z,22.83
2017-10-13T11:06:44.771Z,22.91
2017-10-13T11:07:53.470Z,22.83
2017-10-13T11:09:02.504Z,22.88
2017-10-13T11:10:11.200Z,22.85
2017-10-13T11:11:20.231Z,22.9
2017-10-13T11:12:29.264Z,22.91
2017-10-13T11:13:38.291Z,22.94
2017-10-13T11:14:47.989Z,22.93
2017-10-13T11:15:57.019Z,22.88
2017-10-13T11:17:06.049Z,23
2017-10-13T11:18:14.746Z,22.93
2017-10-13T11:19:24.477Z,22.96
2017-10-13T11:20:33.511Z,22.98
2017-10-13T11:21:42.544Z,22.96
2017-10-13T11:22:51.918Z,22.96
2017-10-13T11:24:00.617Z,22.99
2017-10-13T11:25:09.979Z,22.98
2017-10-13T11:26:19.671Z,22.98
2017-10-13T11:27:29.034Z,22.88
2017-10-13T11:28:38.067Z,22.98
2017-10-13T11:29:47.093Z,23
2017-10-13T11:30:56.124Z,23
2017-10-13T11:32:05.487Z,22.98
2017-10-13T11:33:14.186Z,23.05
2017-10-13T11:34:23.230Z,22.98
2017-10-13T11:35:32.262Z,22.98
2017-10-13T11:36:41.973Z,23.02
2017-10-13T11:37:50.997Z,22.99
2017-10-13T11:38:59.701Z,23.05
2017-10-13T11:40:08.735Z,23
2017-10-13T11:41:18.115Z,22.93
2017-10-13T11:42:26.801Z,22.96
2017-10-13T11:43:35.497Z,23.02
2017-10-13T11:44:44.526Z,23
2017-10-13T11:45:53.893Z,23.02
2017-10-13T11:47:03.257Z,23
2017-10-13T11:48:11.954Z,23.06
2017-10-13T11:49:21.317Z,23.13
2017-10-13T11:50:30.345Z,23.03
2017-10-13T11:51:39.382Z,23.02
2017-10-13T11:52:48.070Z,23.02
2017-10-13T11:53:57.095Z,23.06
2017-10-13T11:55:06.792Z,23.02
2017-10-13T11:56:15.820Z,23.06
2017-10-13T11:57:24.855Z,23
2017-10-13T11:58:33.885Z,23.06
2017-10-13T11:59:42.915Z,23.08
2017-10-13T12:00:51.947Z,23.06
2017-10-13T12:02:01.310Z,23.05
2017-10-13T12:03:10.673Z,23.12
2017-10-13T12:04:19.702Z,23.02
2017-10-13T12:05:29.065Z,23.09
2017-10-13T12:06:38.096Z,23.12
2017-10-13T12:07:47.459Z,23.1
2017-10-13T12:08:56.818Z,23.17
2017-10-13T12:10:05.848Z,23.21
2017-10-13T12:11:14.882Z,23.21
2017-10-13T12:12:24.924Z,23.24
2017-10-13T12:13:34.291Z,23.24
2017-10-13T12:14:43.665Z,23.27
2017-10-13T12:15:53.019Z,23.28
2017-10-13T12:17:01.719Z,23.24
2017-10-13T12:18:10.417Z,23.39
2017-10-13T12:19:19.446Z,23.31
2017-10-13T12:20:28.478Z,23.34
2017-10-13T12:21:37.509Z,23.27
2017-10-13T12:22:46.539Z,23.4
2017-10-13T12:23:55.900Z,23.37
2017-10-13T12:25:05.614Z,23.37
2017-10-13T12:26:14.316Z,23.47
2017-10-13T12:27:23.673Z,23.39
2017-10-13T12:28:33.037Z,23.41
2017-10-13T12:29:42.065Z,23.55
2017-10-13T12:30:50.760Z,23.62
2017-10-13T12:31:59.460Z,23.62
2017-10-13T12:33:08.495Z,23.58
2017-10-13T12:34:17.529Z,23.65
2017-10-13T12:35:26.562Z,23.63
2017-10-13T12:36:35.262Z,23.68
2017-10-13T12:37:44.296Z,23.66
2017-10-13T12:38:53.663Z,23.69
2017-10-13T12:40:03.031Z,23.78
2017-10-13T12:41:11.726Z,23.76
2017-10-13T12:42:20.419Z,23.73
2017-10-13T12:43:29.447Z,23.73
2017-10-13T12:44:38.344Z,23.8
2017-10-13T12:45:47.044Z,23.8
2017-10-13T12:46:56.417Z,23.84
2017-10-13T12:48:05.462Z,23.87
2017-10-13T12:49:14.840Z,23.84
2017-10-13T12:50:23.859Z,23.83
2017-10-13T12:51:33.224Z,23.91
2017-10-13T12:52:42.590Z,23.96
2017-10-13T12:53:51.291Z,23.88
2017-10-13T12:55:00.657Z,23.8
2017-10-13T12:56:09.688Z,23.77
2017-10-13T12:57:18.725Z,23.8
2017-10-13T12:58:28.095Z,23.77
2017-10-13T12:59:36.793Z,23.78
2017-10-13T13:00:45.497Z,23.77
2017-10-13T13:01:54.529Z,23.77
2017-10-13T13:03:03.922Z,23.77
2017-10-13T13:04:12.949Z,23.73
2017-10-13T13:05:22.644Z,23.76
2017-10-13T13:06:32.009Z,23.83
2017-10-13T13:07:41.371Z,23.84
2017-10-13T13:08:50.401Z,23.86
2017-10-13T13:09:59.431Z,23.87
2017-10-13T13:11:08.460Z,23.77
2017-10-13T13:12:17.494Z,23.77
2017-10-13T13:13:26.194Z,23.86
2017-10-13T13:14:34.892Z,23.8
2017-10-13T13:15:43.927Z,23.78
2017-10-13T13:16:53.629Z,23.77
2017-10-13T13:18:02.326Z,23.73
2017-10-13T13:19:11.697Z,23.74
2017-10-13T13:20:20.395Z,23.69
2017-10-13T13:21:29.091Z,23.76
2017-10-13T13:22:38.129Z,23.68
2017-10-13T13:23:46.822Z,23.61
2017-10-13T13:24:55.518Z,23.65
2017-10-13T13:26:04.219Z,23.61
2017-10-13T13:27:13.584Z,23.65
2017-10-13T13:28:22.282Z,23.61
2017-10-13T13:29:31.312Z,23.55
2017-10-13T13:30:40.012Z,23.54
2017-10-13T13:31:49.043Z,23.5
2017-10-13T13:32:58.413Z,23.51
2017-10-13T13:34:07.775Z,23.61
2017-10-13T13:35:17.473Z,23.47
2017-10-13T13:36:26.831Z,23.51
2017-10-13T13:37:35.529Z,23.47
2017-10-13T13:38:45.226Z,23.54
2017-10-13T13:39:54.585Z,23.55
2017-10-13T13:41:03.288Z,23.54
2017-10-13T13:42:12.654Z,23.59
2017-10-13T13:43:22.043Z,23.54
2017-10-13T13:44:31.743Z,23.58
2017-10-13T13:45:40.436Z,23.55
2017-10-13T13:46:49.135Z,23.55
2017-10-13T13:47:58.165Z,23.56
2017-10-13T13:49:07.861Z,23.63
2017-10-13T13:50:16.887Z,23.63
2017-10-13T13:51:25.921Z,23.61
2017-10-13T13:52:34.962Z,23.58
2017-10-13T13:53:43.661Z,23.56
2017-10-13T13:54:53.026Z,23.65
2017-10-13T13:56:02.388Z,23.66
2017-10-13T13:57:12.424Z,23.68
2017-10-13T13:58:21.793Z,23.61
2017-10-13T13:59:30.845Z,23.63
2017-10-13T14:00:39.879Z,23.63
2017-10-13T14:01:48.570Z,23.65
2017-10-13T14:02:57.268Z,23.69
2017-10-13T14:04:06.633Z,23.68
2017-10-13T14:05:15.327Z,23.68
2017-10-13T14:06:24.037Z,23.71
2017-10-13T14:07:33.071Z,23.65
2017-10-13T14:08:42.098Z,23.65
2017-10-13T14:09:51.127Z,23.71
2017-10-13T14:10:59.822Z,23.71
2017-10-13T14:12:08.525Z,23.68
2017-10-13T14:13:18.220Z,23.69
2017-10-13T14:14:26.915Z,23.69
2017-10-13T14:15:35.947Z,23.73
2017-10-13T14:16:44.644Z,23.69
2017-10-13T14:17:53.878Z,23.74
2017-10-13T14:19:03.464Z,23.74
2017-10-13T14:20:12.493Z,23.65
2017-10-13T14:21:21.522Z,23.71
2017-10-13T14:22:30.884Z,23.68
2017-10-13T14:23:39.584Z,23.74
2017-10-13T14:24:48.947Z,23.69
2017-10-13T14:25:57.979Z,23.73
2017-10-13T14:27:07.019Z,23.66
2017-10-13T14:28:16.416Z,23.74
2017-10-13T14:29:25.446Z,23.73
2017-10-13T14:30:34.482Z,23.61
2017-10-13T14:31:43.852Z,23.65
2017-10-13T14:32:53.223Z,23.58
2017-10-13T14:34:02.589Z,23.71
2017-10-13T14:35:11.285Z,23.65
2017-10-13T14:36:20.648Z,23.68
2017-10-13T14:37:29.347Z,23.65
2017-10-13T14:38:38.711Z,23.68
2017-10-13T14:39:48.412Z,23.65
2017-10-13T14:40:57.443Z,23.62
2017-10-13T14:42:06.807Z,23.59
2017-10-13T14:43:15.503Z,23.66
2017-10-13T14:44:25.199Z,23.58
2017-10-13T14:45:34.892Z,23.59
2017-10-13T14:46:44.253Z,23.61
2017-10-13T14:47:53.626Z,23.62
2017-10-13T14:49:03.324Z,23.61
2017-10-13T14:50:12.026Z,23.58
2017-10-13T14:51:21.388Z,23.54
2017-10-13T14:52:30.088Z,23.61
2017-10-13T14:53:39.118Z,23.58
2017-10-13T14:54:48.479Z,23.62